Time;durP1;ratioP1;P1;durP2;ratioP2;P2;SDS_P1;SDS_P2;PMS_P1;PMS_P2;Temp;Humidity;BMP_temperature;BMP_pressure;BME280_temperature;BME280_humidity;BME280_pressure;Samples;Min_cycle;Max_cycle;Signal;HPM_P1;HPM_P2
2022/10/03 00:00:00;;;;;;;21.35;1.95;;;;;;;14.48;70.06;98096.25;4861211;29;20214;-78
2022/10/03 00:03:01;;;;;;;6.22;1.20;;;;;;;14.37;70.26;98092.75;4843885;29;20301;-78
2022/10/03 00:06:01;;;;;;;2.42;0.90;;;;;;;14.16;70.56;98095.16;4801846;29;20117;-79
2022/10/03 00:08:53;;;;;;;25.92;2.63;;;;;;;14.08;70.19;98098.19;4823653;29;20674;-78
2022/10/03 00:11:28;;;;;;;16.52;1.42;;;;;;;14.30;69.75;98103.41;4848136;29;20224;-78
2022/10/03 00:14:02;;;;;;;21.55;1.70;;;;;;;14.17;70.59;98109.03;4829684;29;20760;-78
2022/10/03 00:16:35;;;;;;;19.03;2.00;;;;;;;14.09;70.68;98109.47;4862987;29;20698;-78
2022/10/03 00:19:13;;;;;;;0.82;0.60;;;;;;;14.04;71.00;98113.59;4848687;29;20193;-78
2022/10/03 00:21:49;;;;;;;6.40;1.23;;;;;;;14.05;71.00;98109.97;4845116;29;20380;-79
2022/10/03 00:24:23;;;;;;;1.10;0.45;;;;;;;14.25;70.05;98111.22;4844369;29;20283;-79
2022/10/03 00:26:53;;;;;;;1.85;0.43;;;;;;;14.10;70.16;98111.03;4860243;29;20185;-79
2022/10/03 00:29:46;;;;;;;18.95;1.55;;;;;;;13.95;69.92;98122.91;4855974;29;20299;-78
2022/10/03 00:32:42;;;;;;;1.83;0.55;;;;;;;13.91;70.45;98124.41;4828941;29;20197;-78
2022/10/03 00:35:40;;;;;;;1.08;0.60;;;;;;;13.84;70.63;98129.81;4815307;29;20942;-78
2022/10/03 00:38:06;;;;;;;3.00;1.38;;;;;;;14.02;69.81;98136.63;4858273;29;20098;-78
2022/10/03 00:40:36;;;;;;;1.85;0.60;;;;;;;13.89;69.92;98149.28;4842177;29;20047;-78
2022/10/03 00:43:40;;;;;;;2.05;0.63;;;;;;;13.73;69.64;98146.44;4840029;29;20396;-78
2022/10/03 00:46:27;;;;;;;3.03;0.70;;;;;;;13.66;69.85;98138.75;4855460;29;20042;-78
2022/10/03 00:49:14;;;;;;;2.10;0.80;;;;;;;13.70;69.36;98141.69;4859086;29;20602;-79
2022/10/03 00:52:13;;;;;;;1.33;0.52;;;;;;;13.57;69.83;98142.81;4855070;29;20944;-78
2022/10/03 00:54:42;;;;;;;4.07;0.60;;;;;;;13.62;68.91;98150.75;4854157;29;20031;-78
2022/10/03 00:57:34;;;;;;;3.05;0.55;;;;;;;13.36;69.36;98156.63;4834869;29;20372;-79
2022/10/03 01:00:26;;;;;;;6.07;0.80;;;;;;;13.35;69.72;98160.25;4848261;29;20230;-78
2022/10/03 01:03:20;;;;;;;0.32;0.30;;;;;;;13.28;69.69;98158.56;4834598;29;20196;-78
2022/10/03 01:06:13;;;;;;;2.88;0.40;;;;;;;13.14;70.27;98167.72;4857753;29;20279;-78
2022/10/03 01:08:49;;;;;;;4.95;0.52;;;;;;;13.23;69.33;98166.34;4851223;29;20024;-78
2022/10/03 01:11:19;;;;;;;20.55;1.25;;;;;;;13.17;69.56;98150.78;4845704;29;20185;-79
2022/10/03 01:13:52;;;;;;;1.85;0.40;;;;;;;13.11;69.59;98157.78;4852000;29;20714;-78
2022/10/03 01:16:18;;;;;;;0.77;0.30;;;;;;;13.24;69.55;98152.22;4846355;29;20391;-78
2022/10/03 01:18:52;;;;;;;3.30;0.43;;;;;;;12.98;69.98;98158.06;4854591;29;20219;-78
2022/10/03 01:21:32;;;;;;;1.98;0.28;;;;;;;13.00;69.56;98150.78;4845519;29;20170;-78
2022/10/03 01:24:31;;;;;;;1.02;0.60;;;;;;;12.89;70.08;98158.44;4847874;29;20303;-79
2022/10/03 01:27:00;;;;;;;6.63;0.70;;;;;;;12.87;69.84;98152.66;4851692;29;20556;-78
2022/10/03 01:32:41;;;;;;;4.80;0.52;;;;;;;12.87;69.52;98162.31;4853649;29;20291;-78
2022/10/03 01:35:28;;;;;;;1.02;0.32;;;;;;;12.62;69.37;98165.25;4850830;29;20199;-78
2022/10/03 01:38:05;;;;;;;2.30;0.45;;;;;;;12.65;69.61;98162.19;4851117;29;20216;-78
2022/10/03 01:40:45;;;;;;;8.93;0.63;;;;;;;12.51;69.19;98159.84;4835687;29;20316;-78
2022/10/03 01:43:19;;;;;;;4.82;1.00;;;;;;;12.51;69.24;98159.06;4835516;29;20477;-78
2022/10/03 01:46:16;;;;;;;3.15;0.40;;;;;;;12.42;69.73;98160.44;4848286;28;20220;-78
2022/10/03 01:48:53;;;;;;;2.55;0.63;;;;;;;12.34;69.62;98165.00;4849705;29;20284;-78
2022/10/03 01:52:04;;;;;;;1.73;0.50;;;;;;;12.11;69.54;98160.59;4833973;29;20679;-78
2022/10/03 01:54:34;;;;;;;2.72;0.50;;;;;;;12.13;69.90;98153.34;4844253;29;20165;-78
2022/10/03 01:57:11;;;;;;;4.97;0.50;;;;;;;12.05;69.98;98158.91;4829047;29;20287;-78
2022/10/03 02:00:09;;;;;;;3.28;0.40;;;;;;;12.06;70.50;98155.28;4851250;29;20032;-78
2022/10/03 02:03:13;;;;;;;4.22;0.30;;;;;;;12.04;70.71;98159.16;4835240;29;20200;-79
2022/10/03 02:06:01;;;;;;;20.05;1.15;;;;;;;12.10;70.83;98153.03;4818485;29;20309;-78
2022/10/03 02:08:34;;;;;;;9.43;0.52;;;;;;;12.10;70.35;98153.03;4832384;29;20181;-78
2022/10/03 02:11:03;;;;;;;1.48;0.10;;;;;;;12.26;69.63;98156.72;4829583;29;20714;-78
2022/10/03 02:13:35;;;;;;;35.45;2.75;;;;;;;12.29;69.80;98166.72;4844112;29;20287;-78
2022/10/03 02:16:06;;;;;;;0.10;0.10;;;;;;;12.16;69.98;98152.88;4845568;29;20228;-79
2022/10/03 02:18:47;;;;;;;2.35;0.20;;;;;;;12.05;70.27;98153.69;4832735;29;20413;-79
2022/10/03 02:21:26;;;;;;;1.25;0.20;;;;;;;12.25;69.63;98157.75;4833440;29;20189;-79
2022/10/03 02:24:19;;;;;;;2.10;0.20;;;;;;;11.94;70.13;98162.31;4848636;29;20204;-79
2022/10/03 02:26:44;;;;;;;0.20;0.20;;;;;;;12.17;69.43;98156.28;4845008;29;20216;-80
2022/10/03 02:29:12;;;;;;;2.55;0.30;;;;;;;12.12;69.72;98153.56;4828823;29;20588;-80
2022/10/03 02:31:56;;;;;;;0.98;0.20;;;;;;;11.94;69.93;98151.88;4830257;29;20205;-79
2022/10/03 02:34:51;;;;;;;0.90;0.13;;;;;;;12.05;69.51;98147.69;4849412;29;20208;-78
2022/10/03 02:37:45;;;;;;;1.55;0.20;;;;;;;11.77;69.38;98144.75;4815456;29;20330;-78
2022/10/03 02:40:31;;;;;;;4.65;0.30;;;;;;;11.71;69.53;98143.03;4832789;29;20212;-78
2022/10/03 02:43:28;;;;;;;0.30;0.10;;;;;;;11.73;69.52;98145.41;4861744;29;20204;-78
2022/10/03 02:48:41;;;;;;;1.10;0.30;;;;;;;11.78;69.25;98135.88;4981581;28;20781;-78
2022/10/03 02:51:13;;;;;;;4.72;0.70;;;;;;;11.80;69.75;98125.22;4962442;28;20270;-78
2022/10/03 02:53:57;;;;;;;3.38;0.45;;;;;;;11.76;69.48;98122.25;4950419;28;20173;-78
2022/10/03 02:57:01;;;;;;;0.40;0.30;;;;;;;11.57;69.75;98129.41;4960731;28;20216;-78
2022/10/03 02:59:52;;;;;;;10.18;0.60;;;;;;;11.52;69.76;98131.13;4956238;28;20211;-78
2022/10/03 03:03:05;;;;;;;1.67;0.20;;;;;;;11.43;70.19;98134.06;4945490;28;20169;-78
2022/10/03 03:05:56;;;;;;;0.98;0.30;;;;;;;11.37;70.16;98127.13;4930283;28;20204;-78
2022/10/03 03:08:34;;;;;;;0.50;0.20;;;;;;;11.39;69.69;98135.50;4947227;28;20212;-78
2022/10/03 03:11:22;;;;;;;1.45;0.20;;;;;;;11.33;70.04;98143.47;4945189;28;20260;-78
2022/10/03 03:14:27;;;;;;;21.13;2.05;;;;;;;11.22;70.08;98142.41;4962701;28;20252;-79
2022/10/03 03:17:23;;;;;;;6.65;0.30;;;;;;;11.16;70.12;98148.53;4945744;28;20365;-78
2022/10/03 03:20:08;;;;;;;3.90;0.30;;;;;;;11.20;69.72;98150.47;4960709;28;20599;-78
2022/10/03 03:23:03;;;;;;;1.17;0.25;;;;;;;11.16;70.02;98151.16;4945463;28;20290;-78
2022/10/03 03:25:29;;;;;;;6.90;0.77;;;;;;;11.33;69.88;98157.28;4941119;28;20212;-78
2022/10/03 03:28:20;;;;;;;0.32;0.30;;;;;;;11.11;69.72;98169.28;4958845;28;20590;-78
2022/10/03 03:31:12;;;;;;;17.10;1.50;;;;;;;11.08;69.94;98161.88;4955457;28;20322;-78
2022/10/03 03:33:42;;;;;;;6.90;0.95;;;;;;;11.25;69.89;98165.44;4934162;28;20170;-78
2022/10/03 03:36:44;;;;;;;1.05;0.60;;;;;;;10.98;70.38;98168.41;4993329;28;20267;-78
2022/10/03 03:39:55;;;;;;;4.28;0.50;;;;;;;10.97;70.21;98166.84;4957915;28;20284;-78
2022/10/03 03:42:45;;;;;;;4.20;0.30;;;;;;;10.98;70.20;98162.41;4959196;28;20177;-78
2022/10/03 03:45:28;;;;;;;1.08;0.30;;;;;;;10.95;69.87;98162.84;4944566;28;20282;-78
2022/10/03 03:48:04;;;;;;;21.13;2.15;;;;;;;10.98;69.96;98165.81;4941025;28;20567;-78
2022/10/03 03:50:51;;;;;;;1.60;0.40;;;;;;;10.95;69.47;98161.06;4928707;28;20411;-78
2022/10/03 03:53:45;;;;;;;3.42;0.65;;;;;;;10.86;70.13;98164.97;4928083;28;20172;-78
2022/10/03 03:56:25;;;;;;;2.88;1.27;;;;;;;10.92;69.62;98169.31;4959515;28;20218;-78
2022/10/03 03:59:06;;;;;;;6.50;1.20;;;;;;;10.90;70.06;98171.34;4936660;28;20298;-78
2022/10/03 04:02:07;;;;;;;5.50;1.77;;;;;;;10.80;69.68;98174.47;4914945;28;20161;-77
2022/10/03 04:05:00;;;;;;;1.80;1.20;;;;;;;10.79;69.84;98185.13;4937828;28;20753;-78
2022/10/03 04:07:40;;;;;;;34.05;3.85;;;;;;;10.81;70.08;98183.09;4914964;28;20161;-78
2022/10/03 04:10:47;;;;;;;1.75;0.80;;;;;;;10.74;70.02;98179.78;4929777;28;20266;-78
2022/10/03 04:13:21;;;;;;;1.58;0.68;;;;;;;11.00;69.57;98181.22;4939151;28;20212;-78
2022/10/03 04:18:56;;;;;;;3.38;1.20;;;;;;;10.80;70.21;98182.31;4948592;28;20188;-78
2022/10/03 04:19:43;;;;;;;2.83;1.55;;;;;;;10.74;70.16;98187.59;4978051;28;20296;-78
2022/10/03 04:22:10;;;;;;;46.60;6.53;;;;;;;10.95;69.63;98181.91;4926998;28;20672;-78
2022/10/03 04:24:58;;;;;;;18.30;3.15;;;;;;;10.73;70.10;98180.78;4947303;28;20597;-78
2022/10/03 04:27:52;;;;;;;10.20;1.67;;;;;;;10.70;69.74;98182.03;4930638;28;20333;-78
2022/10/03 04:30:44;;;;;;;1.65;0.80;;;;;;;10.63;70.03;98181.31;4930414;28;20635;-78
2022/10/03 04:33:20;;;;;;;1.77;0.68;;;;;;;10.83;69.94;98181.06;4914322;28;20278;-78
2022/10/03 04:36:09;;;;;;;5.55;1.35;;;;;;;10.70;70.42;98173.44;4922546;28;20166;-78
2022/10/03 04:39:09;;;;;;;2.13;1.20;;;;;;;10.57;70.17;98177.75;4945975;28;20186;-78
2022/10/03 04:41:58;;;;;;;3.05;1.65;;;;;;;10.48;70.69;98168.66;4945928;28;20248;-78
2022/10/03 04:44:30;;;;;;;54.85;3.88;;;;;;;10.57;70.01;98172.56;4942977;28;20717;-78
2022/10/03 04:47:00;;;;;;;13.32;2.33;;;;;;;10.60;70.13;98172.13;4929768;28;20200;-78
2022/10/03 04:49:44;;;;;;;2.85;1.25;;;;;;;10.70;69.82;98176.03;4930477;28;20708;-77
2022/10/03 04:52:18;;;;;;;1.92;1.30;;;;;;;10.51;69.96;98183.88;4941973;28;20307;-78
2022/10/03 04:55:04;;;;;;;2.05;1.15;;;;;;;10.47;70.06;98191.31;4945786;28;20581;-77
2022/10/03 04:57:42;;;;;;;4.53;1.33;;;;;;;10.42;70.22;98201.59;4928846;28;20175;-77
2022/10/03 05:00:13;;;;;;;9.13;1.55;;;;;;;10.51;70.06;98201.31;4945207;28;20365;-78
2022/10/03 05:02:50;;;;;;;7.40;1.50;;;;;;;10.40;70.14;98195.00;4939228;28;20446;-78
2022/10/03 05:06:10;;;;;;;5.53;1.35;;;;;;;10.42;70.29;98196.38;4945769;28;20301;-78
2022/10/03 05:08:41;;;;;;;2.90;1.15;;;;;;;10.41;69.83;98199.19;4873018;28;20145;-78
2022/10/03 05:11:38;;;;;;;13.98;2.13;;;;;;;10.28;70.42;98195.72;4856637;28;20197;-77
2022/10/03 05:14:27;;;;;;;5.97;1.52;;;;;;;10.26;70.45;98194.31;4933660;28;20805;-78
2022/10/03 05:17:02;;;;;;;13.75;1.73;;;;;;;10.45;70.13;98200.34;4929535;28;20215;-78
2022/10/03 05:19:40;;;;;;;;;;;;;;;10.13;70.82;98209.06;4929210;28;20287;-78
2022/10/03 05:22:40;;;;;;;10.63;2.03;;;;;;;10.22;70.09;98208.78;4946487;28;20264;-78
2022/10/03 05:25:52;;;;;;;4.53;2.00;;;;;;;10.17;70.22;98206.81;4912348;28;20215;-78
2022/10/03 05:28:25;;;;;;;5.72;2.42;;;;;;;10.27;70.01;98207.13;4928493;28;20258;-78
2022/10/03 05:31:15;;;;;;;7.38;1.67;;;;;;;10.12;70.77;98211.88;4945054;28;20245;-77
2022/10/03 05:33:50;;;;;;;1.98;1.30;;;;;;;10.22;70.00;98212.19;4944667;28;20237;-77
2022/10/03 05:36:30;;;;;;;;;;;;;;;10.06;70.83;98215.38;4945343;28;20214;-78
2022/10/03 05:39:17;;;;;;;2.63;1.63;;;;;;;10.38;69.57;98228.28;4928454;28;20506;-77
2022/10/03 05:41:52;;;;;;;3.85;2.22;;;;;;;10.29;69.31;98230.34;4943924;28;20559;-77
2022/10/03 05:44:19;;;;;;;10.10;5.40;;;;;;;10.29;70.00;98227.72;4940322;28;20287;-77
2022/10/03 05:46:51;;;;;;;13.82;7.68;;;;;;;10.28;70.03;98232.16;4912753;28;20127;-78
2022/10/03 05:49:45;;;;;;;13.77;8.93;;;;;;;10.06;70.49;98230.97;4945282;28;20200;-77
2022/10/03 05:53:02;;;;;;;25.48;9.88;;;;;;;10.08;70.98;98239.34;4916167;28;20657;-78
2022/10/03 05:55:49;;;;;;;12.30;8.73;;;;;;;10.19;70.61;98238.63;4925537;28;20282;-77
2022/10/03 05:58:27;;;;;;;13.43;9.02;;;;;;;10.05;70.69;98244.97;4945403;28;20183;-77
2022/10/03 06:01:30;;;;;;;16.67;7.50;;;;;;;10.03;71.14;98254.81;4928777;28;20195;-77
2022/10/03 06:04:14;;;;;;;12.60;6.82;;;;;;;10.15;71.31;98260.91;4914433;28;20196;-77
2022/10/03 06:06:58;;;;;;;16.15;7.10;;;;;;;10.14;70.94;98267.09;4918821;28;20203;-78
2022/10/03 06:09:30;;;;;;;13.50;6.68;;;;;;;10.38;70.83;98272.53;4946199;28;20278;-78
2022/10/03 06:12:03;;;;;;;32.20;8.07;;;;;;;10.33;70.76;98274.97;4944363;28;20713;-78
2022/10/03 06:14:38;;;;;;;20.92;6.63;;;;;;;10.17;71.18;98266.69;4944870;28;20200;-78
2022/10/03 06:17:26;;;;;;;26.77;10.80;;;;;;;10.23;71.38;98273.66;4928948;28;20249;-77
2022/10/03 06:20:00;;;;;;;55.72;13.07;;;;;;;10.16;71.84;98266.91;4938903;28;20219;-78
2022/10/03 06:22:38;;;;;;;19.77;6.55;;;;;;;10.34;71.33;98271.38;4928354;28;20669;-77
2022/10/03 06:25:38;;;;;;;30.63;6.75;;;;;;;10.23;71.35;98275.44;4944531;28;20452;-77
2022/10/03 06:28:22;;;;;;;9.57;4.47;;;;;;;10.43;71.54;98280.50;4892959;28;20127;-77
2022/10/03 06:31:06;;;;;;;12.05;5.20;;;;;;;10.48;70.93;98278.03;4945811;28;20358;-78
2022/10/03 06:33:47;;;;;;;15.45;4.90;;;;;;;10.41;70.71;98282.53;4944647;28;20187;-77
2022/10/03 06:36:37;;;;;;;20.50;4.45;;;;;;;10.38;70.75;98282.94;4925349;28;20817;-77
2022/10/03 06:39:40;;;;;;;9.85;4.22;;;;;;;10.43;71.36;98285.69;4940869;28;20164;-77
2022/10/03 06:42:21;;;;;;;14.43;5.63;;;;;;;10.48;71.68;98293.66;4929252;28;20180;-77
2022/10/03 06:44:52;;;;;;;14.80;4.22;;;;;;;10.58;71.62;98293.94;4925935;28;20544;-78
2022/10/03 06:47:39;;;;;;;27.52;7.57;;;;;;;10.63;71.41;98295.91;4943815;28;20641;-77
2022/10/03 06:50:07;;;;;;;16.02;4.10;;;;;;;10.76;72.11;98292.34;4942801;28;20190;-78
2022/10/03 06:52:55;;;;;;;8.55;3.33;;;;;;;10.77;71.81;98283.53;4925175;28;20284;-77
2022/10/03 06:55:29;;;;;;;7.28;2.45;;;;;;;10.83;71.76;98285.25;4938090;28;20208;-78
2022/10/03 06:58:33;;;;;;;8.30;3.45;;;;;;;10.82;72.17;98288.91;4928518;28;20234;-77
2022/10/03 07:01:10;;;;;;;20.33;4.22;;;;;;;11.03;71.28;98290.25;4943691;28;20207;-78
2022/10/03 07:04:02;;;;;;;19.45;11.57;;;;;;;11.29;71.39;98286.50;4928332;28;20250;-77
2022/10/03 07:06:47;;;;;;;30.02;7.70;;;;;;;11.31;71.16;98287.09;4937477;28;20177;-77
2022/10/03 07:09:28;;;;;;;;;;;;;;;11.16;72.00;98286.69;4945011;28;20254;-78
2022/10/03 07:12:16;;;;;;;48.97;6.00;;;;;;;11.49;71.10;98295.88;4945829;28;20510;-78
2022/10/03 07:15:03;;;;;;;13.82;4.60;;;;;;;11.55;71.48;98289.75;4944269;28;20293;-78
2022/10/03 07:17:50;;;;;;;10.40;3.80;;;;;;;11.78;71.26;98289.81;4928270;28;20263;-78
2022/10/03 07:20:28;;;;;;;11.30;3.83;;;;;;;12.09;70.32;98298.41;4928339;28;20363;-78
2022/10/03 07:23:26;;;;;;;8.88;3.53;;;;;;;11.92;71.63;98297.47;4945393;28;20206;-78
2022/10/03 07:26:13;;;;;;;35.55;6.13;;;;;;;12.09;71.63;98293.19;4929663;28;20218;-78
2022/10/03 07:29:15;;;;;;;56.05;8.63;;;;;;;11.92;71.91;98298.25;4945518;28;20326;-78
2022/10/03 07:32:08;;;;;;;29.00;6.93;;;;;;;12.13;72.25;98302.16;4928888;28;20221;-78
2022/10/03 07:35:02;;;;;;;5.07;3.65;;;;;;;12.32;71.25;98302.03;4929709;28;20649;-78
2022/10/03 07:41:14;;;;;;;41.35;5.78;;;;;;;12.31;71.42;98300.47;4948781;28;20366;-78
2022/10/03 07:43:58;;;;;;;12.02;4.15;;;;;;;12.48;71.37;98303.97;4943843;28;20192;-78
2022/10/03 07:46:46;;;;;;;23.75;5.40;;;;;;;12.54;71.43;98305.69;4949103;28;20709;-78
2022/10/03 07:49:35;;;;;;;42.35;6.38;;;;;;;12.55;71.41;98302.03;4915967;28;20351;-78
2022/10/03 07:52:39;;;;;;;13.48;5.55;;;;;;;12.64;71.89;98309.53;4933251;28;20219;-79
2022/10/03 07:55:20;;;;;;;57.70;6.45;;;;;;;12.83;71.58;98312.78;4930806;28;20653;-78
2022/10/03 07:57:50;;;;;;;28.27;4.72;;;;;;;12.97;71.39;98306.28;4949047;28;20270;-78
2022/10/03 08:00:21;;;;;;;27.30;4.30;;;;;;;12.92;71.25;98311.41;4915994;28;20222;-79
2022/10/03 08:03:26;;;;;;;26.55;3.88;;;;;;;12.95;71.37;98315.38;4916945;28;20703;-79
2022/10/03 08:06:06;;;;;;;18.90;4.68;;;;;;;12.97;71.44;98321.16;4935777;28;20213;-79
2022/10/03 08:09:07;;;;;;;51.15;10.05;;;;;;;13.10;71.54;98318.28;4948441;28;20238;-79
2022/10/03 08:11:47;;;;;;;31.35;5.80;;;;;;;13.42;70.51;98323.09;4947772;28;20287;-79
2022/10/03 08:14:18;;;;;;;11.90;4.65;;;;;;;13.61;70.85;98319.25;4928349;28;20352;-78
2022/10/03 08:17:11;;;;;;;16.80;4.55;;;;;;;13.59;70.82;98321.31;4947169;28;20191;-78
2022/10/03 08:19:40;;;;;;;41.65;10.07;;;;;;;13.91;70.66;98328.63;4946592;28;20204;-79
2022/10/03 08:22:08;;;;;;;15.93;9.32;;;;;;;14.00;70.51;98319.38;4942561;28;20286;-78
2022/10/03 08:24:39;;;;;;;16.42;7.13;;;;;;;13.95;70.38;98323.72;4928100;28;20623;-79
2022/10/03 08:27:11;;;;;;;22.77;10.10;;;;;;;13.96;70.87;98323.47;4930590;28;20261;-79
2022/10/03 08:30:00;;;;;;;31.13;9.93;;;;;;;13.97;70.54;98319.84;4946879;28;20693;-79
2022/10/03 08:32:41;;;;;;;19.00;10.02;;;;;;;14.01;70.68;98318.31;4931132;28;20244;-79
2022/10/03 08:35:28;;;;;;;24.23;11.75;;;;;;;14.03;71.39;98329.38;4946975;28;20278;-78
2022/10/03 08:38:15;;;;;;;33.80;18.80;;;;;;;14.33;70.93;98325.63;4940689;28;20212;-79
2022/10/03 08:40:59;;;;;;;17.05;9.45;;;;;;;14.68;70.45;98329.78;4946276;28;20388;-79
2022/10/03 08:43:37;;;;;;;23.02;13.40;;;;;;;14.54;70.41;98328.53;4930092;28;20443;-79
2022/10/03 08:46:18;;;;;;;14.25;9.60;;;;;;;14.47;69.56;98335.78;4945168;28;20196;-79
2022/10/03 08:48:53;;;;;;;17.23;9.57;;;;;;;14.87;69.56;98334.75;4947984;28;20207;-79
2022/10/03 08:51:25;;;;;;;16.20;7.15;;;;;;;15.00;68.26;98338.84;4945645;28;20204;-79
2022/10/03 08:54:03;;;;;;;13.38;7.80;;;;;;;15.06;67.73;98335.25;4945963;28;20245;-79
2022/10/03 08:56:56;;;;;;;15.82;8.50;;;;;;;14.74;69.56;98333.28;4945896;28;20267;-79
2022/10/03 08:59:34;;;;;;;17.20;7.93;;;;;;;14.84;69.60;98322.94;4913549;28;20328;-79
2022/10/03 09:02:18;;;;;;;11.57;7.97;;;;;;;14.95;69.98;98329.09;4946154;28;20282;-79
2022/10/03 09:05:05;;;;;;;23.80;15.02;;;;;;;14.89;70.53;98323.00;4929531;28;20275;-80
2022/10/03 09:07:58;;;;;;;14.38;8.23;;;;;;;14.95;71.23;98323.84;4941312;28;20347;-80
2022/10/03 09:11:01;;;;;;;15.07;9.13;;;;;;;14.99;70.93;98330.19;4942917;28;20215;-80
2022/10/03 09:14:18;;;;;;;10.98;6.38;;;;;;;15.24;70.18;98328.91;4927237;28;20327;-80
2022/10/03 09:17:19;;;;;;;11.55;6.47;;;;;;;14.98;70.18;98320.75;4906398;28;20183;-81
2022/10/03 09:19:55;;;;;;;9.10;6.47;;;;;;;15.46;69.20;98321.78;4909706;28;20189;-80
2022/10/03 09:22:30;;;;;;;10.60;5.90;;;;;;;15.50;69.55;98322.84;4917985;28;20356;-80
2022/10/03 09:24:55;;;;;;;10.93;5.03;;;;;;;15.74;68.78;98327.81;4912998;28;20258;-80
2022/10/03 09:27:33;;;;;;;9.23;5.72;;;;;;;15.73;68.73;98326.25;4928919;28;20251;-80
2022/10/03 09:30:22;;;;;;;9.63;5.43;;;;;;;15.69;68.73;98325.13;4931767;28;20291;-81
2022/10/03 09:33:06;;;;;;;8.00;5.35;;;;;;;15.85;68.96;98336.59;4928437;28;20212;-81
2022/10/03 09:35:59;;;;;;;10.07;4.95;;;;;;;15.87;68.12;98337.94;4952103;28;20248;-80
2022/10/03 09:38:37;;;;;;;7.78;4.47;;;;;;;15.95;68.35;98339.31;4931349;28;20278;-81
2022/10/03 09:41:17;;;;;;;7.68;4.03;;;;;;;16.32;67.87;98337.75;4934621;28;20779;-82
2022/10/03 09:44:06;;;;;;;6.93;4.57;;;;;;;16.05;67.23;98338.59;4928018;28;20645;-81
2022/10/03 09:46:44;;;;;;;5.88;3.83;;;;;;;16.07;67.00;98339.94;4925508;28;20246;-80
2022/10/03 09:49:37;;;;;;;8.55;4.10;;;;;;;15.86;66.83;98335.56;4937931;28;20669;-80
2022/10/03 09:52:21;;;;;;;7.20;3.50;;;;;;;15.38;66.82;98339.81;4926609;28;20246;-80
2022/10/03 09:55:05;;;;;;;6.63;3.80;;;;;;;15.66;67.66;98330.88;4928873;28;20199;-80
2022/10/03 09:57:37;;;;;;;6.20;4.50;;;;;;;15.86;65.81;98336.34;4928437;28;20793;-80
2022/10/03 10:00:26;;;;;;;5.07;3.63;;;;;;;15.57;65.75;98333.16;4921229;28;20188;-81
2022/10/03 10:03:07;;;;;;;6.82;3.17;;;;;;;15.78;64.96;98333.38;4912904;28;20298;-80
2022/10/03 10:05:53;;;;;;;7.35;3.58;;;;;;;15.78;64.34;98328.94;4943633;28;20172;-79
2022/10/03 10:08:35;;;;;;;5.50;3.70;;;;;;;16.10;65.17;98325.50;4942903;28;20157;-81
2022/10/03 10:11:03;;;;;;;5.10;3.15;;;;;;;16.59;63.55;98325.31;4921696;28;20200;-80
2022/10/03 10:13:50;;;;;;;6.50;3.65;;;;;;;16.55;62.68;98324.22;4945099;28;20188;-80
2022/10/03 10:16:16;;;;;;;8.13;3.85;;;;;;;16.73;62.23;98325.63;4927442;28;20238;-79
2022/10/03 10:19:00;;;;;;;5.93;2.90;;;;;;;16.77;60.33;98318.03;4945031;28;20696;-80
2022/10/03 10:22:16;;;;;;;7.10;3.80;;;;;;;16.70;60.76;98317.47;4945651;28;20641;-80
2022/10/03 10:25:36;;;;;;;10.57;3.45;;;;;;;16.74;60.64;98324.59;4865740;28;20169;-80
2022/10/03 10:28:10;;;;;;;6.07;3.05;;;;;;;16.58;58.40;98315.03;4905510;28;20184;-79
2022/10/03 10:31:01;;;;;;;7.82;4.55;;;;;;;16.84;62.28;98324.69;4925419;28;20197;-80
2022/10/03 10:33:41;;;;;;;6.10;2.75;;;;;;;16.57;58.08;98324.78;4928605;28;20161;-81
2022/10/03 10:37:01;;;;;;;5.47;3.60;;;;;;;16.29;58.15;98331.94;4928663;28;20850;-81
2022/10/03 10:40:04;;;;;;;5.63;2.83;;;;;;;16.39;59.09;98330.44;4876756;28;20374;-80
2022/10/03 10:43:07;;;;;;;5.07;2.67;;;;;;;16.55;59.04;98326.84;4887150;28;20252;-80
2022/10/03 10:46:10;;;;;;;4.75;2.20;;;;;;;16.52;59.31;98331.81;4966067;28;20295;-80
2022/10/03 10:49:07;;;;;;;6.32;2.72;;;;;;;16.69;57.45;98326.38;4921414;28;20674;-80
2022/10/03 10:51:46;;;;;;;4.28;2.47;;;;;;;17.31;56.73;98319.56;4944769;28;20278;-79
2022/10/03 10:54:19;;;;;;;5.22;2.10;;;;;;;17.09;56.46;98325.03;4912250;28;20263;-81
2022/10/03 10:56:59;;;;;;;6.15;2.28;;;;;;;16.74;56.87;98327.22;4944268;28;20208;-80
2022/10/03 10:59:44;;;;;;;5.28;2.75;;;;;;;16.74;58.09;98323.78;4928008;28;20207;-80
2022/10/03 11:02:36;;;;;;;4.03;2.70;;;;;;;16.82;58.50;98325.94;4941355;28;20637;-79
2022/10/03 11:05:20;;;;;;;6.45;2.95;;;;;;;17.22;58.65;98327.16;4924930;28;20299;-81
2022/10/03 11:08:11;;;;;;;5.95;2.50;;;;;;;17.40;57.15;98326.69;4925210;28;20202;-81
2022/10/03 11:11:12;;;;;;;3.55;2.47;;;;;;;17.53;56.68;98308.78;4946259;28;20180;-81
2022/10/03 11:14:13;;;;;;;4.15;2.72;;;;;;;18.21;56.37;98307.78;4897868;28;20426;-81
2022/10/03 11:17:27;;;;;;;6.28;2.42;;;;;;;18.36;56.86;98304.34;4947127;28;20333;-81
2022/10/03 11:20:01;;;;;;;3.40;2.58;;;;;;;17.70;57.32;98306.72;4970147;28;20305;-81
2022/10/03 11:22:40;;;;;;;5.05;2.75;;;;;;;18.03;57.17;98309.91;4927229;28;20274;-81
2022/10/03 11:25:31;;;;;;;5.20;3.25;;;;;;;17.81;56.72;98301.47;4948279;28;20657;-81
2022/10/03 11:28:02;;;;;;;4.90;2.78;;;;;;;18.50;55.53;98298.22;4915537;28;20688;-81
2022/10/03 11:31:05;;;;;;;8.68;4.15;;;;;;;19.12;53.57;98305.13;4931536;28;20242;-81
2022/10/03 11:33:56;;;;;;;5.82;3.30;;;;;;;18.93;52.93;98305.75;4931252;28;20275;-81
2022/10/03 11:37:14;;;;;;;6.35;3.30;;;;;;;19.72;53.09;98305.03;4947806;28;20385;-81
2022/10/03 11:39:46;;;;;;;5.50;3.33;;;;;;;20.08;49.63;98299.47;4926079;28;20207;-81
2022/10/03 11:42:32;;;;;;;4.95;2.50;;;;;;;20.30;48.82;98302.41;4949030;28;20196;-81
2022/10/03 11:45:15;;;;;;;5.10;2.40;;;;;;;20.91;47.60;98295.69;4947762;28;20626;-81
2022/10/03 11:48:04;;;;;;;2.95;1.92;;;;;;;21.58;44.73;98276.25;4931102;28;20279;-81
2022/10/03 11:50:37;;;;;;;2.47;1.80;;;;;;;22.56;43.71;98285.97;4938381;28;20242;-81
2022/10/03 11:53:40;;;;;;;4.60;1.77;;;;;;;22.83;44.25;98280.94;4914958;28;20322;-82
2022/10/03 11:56:32;;;;;;;7.13;3.28;;;;;;;23.01;43.27;98272.03;4947347;28;20729;-81
2022/10/03 11:59:28;;;;;;;4.15;2.17;;;;;;;22.51;43.43;98274.66;4947077;28;20766;-82
2022/10/03 12:01:54;;;;;;;4.72;1.70;;;;;;;21.82;44.23;98273.47;4951313;28;20253;-82
2022/10/03 12:04:27;;;;;;;3.15;1.63;;;;;;;21.36;45.71;98273.38;4947477;28;20275;-81
2022/10/03 12:10:23;;;;;;;3.30;1.60;;;;;;;19.42;49.73;98267.22;4947178;28;20227;-81
2022/10/03 12:12:53;;;;;;;5.07;2.45;;;;;;;19.49;48.90;98266.91;4946906;28;20211;-81
2022/10/03 12:15:30;;;;;;;3.83;2.45;;;;;;;20.39;48.48;98265.56;4914554;28;20191;-81
2022/10/03 12:18:08;;;;;;;3.67;1.98;;;;;;;21.60;44.82;98260.06;4930781;28;20155;-81
2022/10/03 12:20:59;;;;;;;2.97;1.80;;;;;;;22.28;42.60;98256.00;4946399;28;20270;-82
2022/10/03 12:23:28;;;;;;;3.25;1.73;;;;;;;22.41;41.03;98255.22;4931437;28;20599;-81
2022/10/03 12:25:55;;;;;;;5.07;2.05;;;;;;;21.42;43.24;98241.22;4947072;28;20262;-82
2022/10/03 12:28:24;;;;;;;9.60;6.93;;;;;;;21.86;43.54;98244.50;4914168;28;20109;-81
2022/10/03 12:30:59;;;;;;;3.22;2.40;;;;;;;21.27;44.19;98244.09;4931098;28;20287;-82
2022/10/03 12:33:38;;;;;;;3.55;2.38;;;;;;;20.56;47.13;98242.09;4914301;28;20203;-81
2022/10/03 12:36:22;;;;;;;3.22;2.30;;;;;;;19.86;48.81;98239.94;4932135;28;20172;-81
2022/10/03 12:39:10;;;;;;;2.95;2.20;;;;;;;19.61;49.28;98241.69;4913674;28;20638;-81
2022/10/03 12:41:56;;;;;;;3.28;1.95;;;;;;;19.00;51.53;98240.25;4930317;28;20195;-81
2022/10/03 12:45:01;;;;;;;1.58;1.35;;;;;;;18.92;49.32;98245.31;4913969;28;20203;-80
2022/10/03 12:47:43;;;;;;;3.85;2.15;;;;;;;18.58;50.42;98244.13;4945715;28;20290;-80
2022/10/03 12:50:35;;;;;;;3.08;2.40;;;;;;;18.52;52.39;98245.19;4929781;28;20259;-81
2022/10/03 12:53:14;;;;;;;3.45;1.63;;;;;;;18.09;51.69;98236.88;4946501;28;20361;-80
2022/10/03 12:55:42;;;;;;;3.70;2.33;;;;;;;18.38;51.18;98245.00;4930352;28;20239;-81
2022/10/03 12:58:16;;;;;;;5.07;2.38;;;;;;;18.16;51.56;98242.66;4929775;28;20157;-80
2022/10/03 13:01:06;;;;;;;3.17;2.43;;;;;;;18.13;52.34;98241.38;4929672;28;20264;-80
2022/10/03 13:03:50;;;;;;;5.80;3.50;;;;;;;18.02;51.25;98231.91;4946439;28;20225;-80
2022/10/03 13:06:23;;;;;;;4.13;2.47;;;;;;;17.67;52.86;98228.22;4946301;28;20278;-79